Regan, ND (58477)

12:32 AM CST on February 14, 2016 (GMT -0600)
136 Ave NW | | Change Station
CLOSE
Current Station
Personal Weather Station
Location: Bismarck, ND
Elevation: 1932 ft
Nearby Weather Stations
Active Advisory: Special Statement Active Notice: Record Report, Local Storm Report

Elev 1932 ft 46.95 °N, 100.83 °W | Updated 14 seconds ago

Overcast
Overcast
15.3 °F
Feels Like 15 °F
N
0.2
Wind Variable Wind from ENE
Gusts 2.5 mph

Today
High -- | Low -- °F
--% Chance of Precip.
Yesterday
High -- | Low -- °F
Precip. -- in
Pressure 29.82 in
Visibility 5.0 miles
Clouds Overcast 800 ft
Windchill 15 °F
Dew Point 8 °F
Humidity 72%
Rainfall 0.00 in
Snow Depth Not available.
7:49 AM 6:04 PM
Waxing Crescent, 38% visible
SPECI KBIS 140609Z 15008KT 5SM BR OVC008 M07/M09 A2982 RMK AO2 CIG 007V010 I1000 T10721094
Pressure 29.82 in
Visibility 5.0 miles
Clouds Overcast 800 ft
Windchill 15 °F
Dew Point 8 °F
Humidity 72%
Rainfall 0.00 in
Snow Depth Not available.
7:49 AM 6:04 PM
Waxing Crescent, 38% visible
SPECI KBIS 140609Z 15008KT 5SM BR OVC008 M07/M09 A2982 RMK AO2 CIG 007V010 I1000 T10721094

10-Day Weather Forecast

Almanac

Astronomy

Feb. 14, 2016 Rise Set
Actual Time
Civil Twilight
Nautical Twilight
Astronomical Twilight
Moon
Length of Visible Light
Length of Day
Tomorrow will be .
, % of the Moon is Illuminated

Today's Extremes

State Highs State Lows

Community

WunderPhotos

Upload Photos

1,892,757 photos uploaded!

WunderBlog® & News

Nearby

Air Quality

  Air Quality AQ Index Pollutant
Not available.

Snow Depth

Station Depth Elevation

Earthquake Activity

City Distance Mag. Time & Date
Minimum magnitude displayed is 2.5.

Coastal Water Temperatures

Place Temperature

Stations

Nearby Weather Stations

Station Location Temp. Windchill Dew Point Humidity Wind Precip. Elev Updated Type
                   

Watches & Warnings

Special Statement
Issued: 11:14 PM MST Feb. 13, 2016 – National Weather Service

... Freezing drizzle over parts of central and western North
Dakota...

The area of light snow over central and eastern North Dakota continues
to move eastward this morning... however areas of freezing drizzle
had developed on the western edge of the area of light snow. The
freezing drizzle was ahead of a warm front located over western
North Dakota... and is expected to persist for most of the
overnight hours from Stanley and Minot... south to Glen Ullin and
Bismarck to Steele... southward to the South Dakota border in Grant
and Sioux counties... Linton... and Napoleon. People traveling
across parts of western and central North Dakota should be mindful
of changing Road conditions... with snow and ice build up on
roadways.


Jv